sensor_id;sensor_type;location;lat;lon;timestamp;temperature;humidity
15384;DHT22;7790;53.022;12.968;2022-08-19T00:01:08;24.50;68.90
15384;DHT22;7790;53.022;12.968;2022-08-19T00:05:10;24.50;68.90
15384;DHT22;7790;53.022;12.968;2022-08-19T00:09:13;24.50;69.00
15384;DHT22;7790;53.022;12.968;2022-08-19T00:13:15;24.40;68.80
15384;DHT22;7790;53.022;12.968;2022-08-19T00:17:16;24.30;69.40
15384;DHT22;7790;53.022;12.968;2022-08-19T00:21:17;24.40;69.70
15384;DHT22;7790;53.022;12.968;2022-08-19T00:25:18;24.40;69.30
15384;DHT22;7790;53.022;12.968;2022-08-19T00:29:24;24.40;69.30
15384;DHT22;7790;53.022;12.968;2022-08-19T00:33:25;24.40;69.50
15384;DHT22;7790;53.022;12.968;2022-08-19T00:37:26;24.40;69.40
15384;DHT22;7790;53.022;12.968;2022-08-19T00:41:28;24.40;69.70
15384;DHT22;7790;53.022;12.968;2022-08-19T00:45:29;24.30;70.20
15384;DHT22;7790;53.022;12.968;2022-08-19T00:53:43;24.30;69.80
15384;DHT22;7790;53.022;12.968;2022-08-19T00:57:48;24.30;69.70
15384;DHT22;7790;53.022;12.968;2022-08-19T01:01:51;24.30;69.90
15384;DHT22;7790;53.022;12.968;2022-08-19T01:05:54;24.30;69.90
15384;DHT22;7790;53.022;12.968;2022-08-19T01:09:55;24.30;70.30
15384;DHT22;7790;53.022;12.968;2022-08-19T01:13:57;24.30;70.40
15384;DHT22;7790;53.022;12.968;2022-08-19T01:18:06;24.30;70.50
15384;DHT22;7790;53.022;12.968;2022-08-19T01:22:14;24.30;70.80
15384;DHT22;7790;53.022;12.968;2022-08-19T01:26:22;24.30;70.80
15384;DHT22;7790;53.022;12.968;2022-08-19T01:30:26;24.30;71.20
15384;DHT22;7790;53.022;12.968;2022-08-19T01:34:28;24.30;70.90
15384;DHT22;7790;53.022;12.968;2022-08-19T01:38:29;24.20;71.80
15384;DHT22;7790;53.022;12.968;2022-08-19T01:42:32;24.20;72.40
15384;DHT22;7790;53.022;12.968;2022-08-19T01:46:33;24.20;72.80
15384;DHT22;7790;53.022;12.968;2022-08-19T01:50:34;24.10;73.00
15384;DHT22;7790;53.022;12.968;2022-08-19T01:54:35;24.10;73.40
15384;DHT22;7790;53.022;12.968;2022-08-19T01:58:40;24.10;73.50
15384;DHT22;7790;53.022;12.968;2022-08-19T02:02:42;24.20;73.40
15384;DHT22;7790;53.022;12.968;2022-08-19T02:06:43;24.20;73.30
15384;DHT22;7790;53.022;12.968;2022-08-19T02:10:44;24.20;73.50
15384;DHT22;7790;53.022;12.968;2022-08-19T02:14:45;24.10;74.30
15384;DHT22;7790;53.022;12.968;2022-08-19T02:18:46;24.20;74.20
15384;DHT22;7790;53.022;12.968;2022-08-19T02:22:51;24.20;74.00
15384;DHT22;7790;53.022;12.968;2022-08-19T02:26:52;24.10;74.70
15384;DHT22;7790;53.022;12.968;2022-08-19T02:30:52;24.10;75.80
15384;DHT22;7790;53.022;12.968;2022-08-19T02:34:53;24.10;74.80
15384;DHT22;7790;53.022;12.968;2022-08-19T02:38:55;24.10;75.50
15384;DHT22;7790;53.022;12.968;2022-08-19T02:42:55;24.10;75.30
15384;DHT22;7790;53.022;12.968;2022-08-19T02:46:56;24.00;75.50
15384;DHT22;7790;53.022;12.968;2022-08-19T02:50:57;23.80;77.20
15384;DHT22;7790;53.022;12.968;2022-08-19T02:54:58;24.00;76.60
15384;DHT22;7790;53.022;12.968;2022-08-19T02:58:59;23.90;77.50
15384;DHT22;7790;53.022;12.968;2022-08-19T03:03:00;23.90;77.90
15384;DHT22;7790;53.022;12.968;2022-08-19T03:07:01;23.90;77.80
15384;DHT22;7790;53.022;12.968;2022-08-19T03:11:02;23.90;77.60
15384;DHT22;7790;53.022;12.968;2022-08-19T03:15:05;23.80;79.10
15384;DHT22;7790;53.022;12.968;2022-08-19T03:19:08;23.80;79.50
15384;DHT22;7790;53.022;12.968;2022-08-19T03:23:09;23.90;78.10
15384;DHT22;7790;53.022;12.968;2022-08-19T03:27:10;23.90;78.30
15384;DHT22;7790;53.022;12.968;2022-08-19T03:31:13;23.90;77.70
15384;DHT22;7790;53.022;12.968;2022-08-19T03:35:14;23.90;77.90
15384;DHT22;7790;53.022;12.968;2022-08-19T03:39:16;23.90;78.00
15384;DHT22;7790;53.022;12.968;2022-08-19T03:43:17;23.90;78.30
15384;DHT22;7790;53.022;12.968;2022-08-19T03:47:18;23.80;79.50
15384;DHT22;7790;53.022;12.968;2022-08-19T03:51:30;23.90;79.00
15384;DHT22;7790;53.022;12.968;2022-08-19T03:55:31;23.90;78.50
15384;DHT22;7790;53.022;12.968;2022-08-19T03:59:34;24.00;77.70
15384;DHT22;7790;53.022;12.968;2022-08-19T04:03:35;24.00;77.00
15384;DHT22;7790;53.022;12.968;2022-08-19T04:07:36;23.90;76.60
15384;DHT22;7790;53.022;12.968;2022-08-19T04:11:49;23.90;76.50
15384;DHT22;7790;53.022;12.968;2022-08-19T04:15:50;23.90;76.10
15384;DHT22;7790;53.022;12.968;2022-08-19T04:19:51;23.90;76.20
15384;DHT22;7790;53.022;12.968;2022-08-19T04:23:54;23.90;76.00
15384;DHT22;7790;53.022;12.968;2022-08-19T04:27:54;23.90;75.80
15384;DHT22;7790;53.022;12.968;2022-08-19T04:31:56;23.90;76.20
15384;DHT22;7790;53.022;12.968;2022-08-19T04:35:57;23.90;75.80
15384;DHT22;7790;53.022;12.968;2022-08-19T04:39:59;23.90;76.30
15384;DHT22;7790;53.022;12.968;2022-08-19T04:44:20;23.80;76.70
15384;DHT22;7790;53.022;12.968;2022-08-19T04:48:22;23.80;76.90
15384;DHT22;7790;53.022;12.968;2022-08-19T04:52:26;23.90;76.40
15384;DHT22;7790;53.022;12.968;2022-08-19T04:56:27;23.90;75.90
15384;DHT22;7790;53.022;12.968;2022-08-19T05:00:28;23.90;75.30
15384;DHT22;7790;53.022;12.968;2022-08-19T05:04:29;23.90;75.00
15384;DHT22;7790;53.022;12.968;2022-08-19T05:08:35;23.90;75.20
15384;DHT22;7790;53.022;12.968;2022-08-19T05:12:37;23.90;75.00
15384;DHT22;7790;53.022;12.968;2022-08-19T05:16:39;23.90;75.30
15384;DHT22;7790;53.022;12.968;2022-08-19T05:20:40;23.90;75.40
15384;DHT22;7790;53.022;12.968;2022-08-19T05:25:09;23.90;75.60
15384;DHT22;7790;53.022;12.968;2022-08-19T05:29:14;23.90;75.60
15384;DHT22;7790;53.022;12.968;2022-08-19T05:33:15;23.90;76.00
15384;DHT22;7790;53.022;12.968;2022-08-19T05:37:16;23.90;76.50
15384;DHT22;7790;53.022;12.968;2022-08-19T05:41:18;23.90;77.10
15384;DHT22;7790;53.022;12.968;2022-08-19T05:45:19;23.90;77.00
15384;DHT22;7790;53.022;12.968;2022-08-19T05:49:22;23.80;77.20
15384;DHT22;7790;53.022;12.968;2022-08-19T05:53:23;23.80;78.00
15384;DHT22;7790;53.022;12.968;2022-08-19T05:57:24;23.80;78.40
15384;DHT22;7790;53.022;12.968;2022-08-19T06:01:26;23.80;77.90
15384;DHT22;7790;53.022;12.968;2022-08-19T06:05:27;23.80;77.80
15384;DHT22;7790;53.022;12.968;2022-08-19T06:09:28;23.80;78.40
15384;DHT22;7790;53.022;12.968;2022-08-19T06:13:29;23.80;78.50
15384;DHT22;7790;53.022;12.968;2022-08-19T06:17:30;23.80;78.40
15384;DHT22;7790;53.022;12.968;2022-08-19T06:21:30;23.80;78.60
15384;DHT22;7790;53.022;12.968;2022-08-19T06:25:31;23.80;78.40
15384;DHT22;7790;53.022;12.968;2022-08-19T06:29:33;23.80;78.70
15384;DHT22;7790;53.022;12.968;2022-08-19T06:33:35;23.70;78.90
15384;DHT22;7790;53.022;12.968;2022-08-19T06:37:37;23.80;78.70
15384;DHT22;7790;53.022;12.968;2022-08-19T06:41:41;23.80;78.30
15384;DHT22;7790;53.022;12.968;2022-08-19T06:45:48;23.80;78.30
15384;DHT22;7790;53.022;12.968;2022-08-19T06:49:56;23.80;78.10
15384;DHT22;7790;53.022;12.968;2022-08-19T06:54:00;23.80;78.20
15384;DHT22;7790;53.022;12.968;2022-08-19T06:58:03;23.80;78.40
15384;DHT22;7790;53.022;12.968;2022-08-19T07:02:05;23.80;78.70
15384;DHT22;7790;53.022;12.968;2022-08-19T07:06:13;23.80;78.90
15384;DHT22;7790;53.022;12.968;2022-08-19T07:10:15;23.80;79.10
15384;DHT22;7790;53.022;12.968;2022-08-19T07:14:19;23.80;79.90
15384;DHT22;7790;53.022;12.968;2022-08-19T07:18:20;23.80;80.00
15384;DHT22;7790;53.022;12.968;2022-08-19T07:22:22;23.80;79.90
15384;DHT22;7790;53.022;12.968;2022-08-19T07:26:29;23.80;80.40
15384;DHT22;7790;53.022;12.968;2022-08-19T07:30:30;23.80;81.20
15384;DHT22;7790;53.022;12.968;2022-08-19T07:34:32;23.80;81.00
15384;DHT22;7790;53.022;12.968;2022-08-19T07:38:39;23.80;80.30
15384;DHT22;7790;53.022;12.968;2022-08-19T07:42:42;23.80;80.40
15384;DHT22;7790;53.022;12.968;2022-08-19T07:46:46;23.80;80.50
15384;DHT22;7790;53.022;12.968;2022-08-19T07:50:47;23.90;80.80
15384;DHT22;7790;53.022;12.968;2022-08-19T07:54:48;23.90;80.50
15384;DHT22;7790;53.022;12.968;2022-08-19T07:58:51;23.90;80.70
15384;DHT22;7790;53.022;12.968;2022-08-19T08:02:53;23.90;81.60
15384;DHT22;7790;53.022;12.968;2022-08-19T08:06:54;23.90;80.80
15384;DHT22;7790;53.022;12.968;2022-08-19T08:11:17;24.00;80.00
15384;DHT22;7790;53.022;12.968;2022-08-19T08:15:19;24.00;80.40
15384;DHT22;7790;53.022;12.968;2022-08-19T08:19:22;24.00;81.10
15384;DHT22;7790;53.022;12.968;2022-08-19T08:23:24;23.90;80.70
15384;DHT22;7790;53.022;12.968;2022-08-19T08:27:26;24.00;80.90
15384;DHT22;7790;53.022;12.968;2022-08-19T08:31:31;23.90;80.80
15384;DHT22;7790;53.022;12.968;2022-08-19T08:35:34;24.00;80.20
15384;DHT22;7790;53.022;12.968;2022-08-19T08:39:35;23.90;80.40
15384;DHT22;7790;53.022;12.968;2022-08-19T08:43:38;23.90;80.40
15384;DHT22;7790;53.022;12.968;2022-08-19T08:47:48;24.00;80.20
15384;DHT22;7790;53.022;12.968;2022-08-19T08:56:20;24.00;80.20
15384;DHT22;7790;53.022;12.968;2022-08-19T09:00:25;24.00;80.60
15384;DHT22;7790;53.022;12.968;2022-08-19T09:04:27;24.00;80.20
15384;DHT22;7790;53.022;12.968;2022-08-19T09:17:15;24.00;80.60
15384;DHT22;7790;53.022;12.968;2022-08-19T09:21:17;24.00;80.30
15384;DHT22;7790;53.022;12.968;2022-08-19T09:25:20;24.00;80.40
15384;DHT22;7790;53.022;12.968;2022-08-19T09:29:22;24.00;81.20
15384;DHT22;7790;53.022;12.968;2022-08-19T09:33:23;24.00;80.90
15384;DHT22;7790;53.022;12.968;2022-08-19T09:37:24;24.00;81.00
15384;DHT22;7790;53.022;12.968;2022-08-19T09:41:26;23.90;82.30
15384;DHT22;7790;53.022;12.968;2022-08-19T09:45:27;23.80;83.80
15384;DHT22;7790;53.022;12.968;2022-08-19T09:49:28;23.80;82.90
15384;DHT22;7790;53.022;12.968;2022-08-19T09:53:29;23.80;83.40
15384;DHT22;7790;53.022;12.968;2022-08-19T09:57:30;23.80;83.70
15384;DHT22;7790;53.022;12.968;2022-08-19T10:01:32;23.80;84.00
15384;DHT22;7790;53.022;12.968;2022-08-19T10:05:33;23.80;85.20
15384;DHT22;7790;53.022;12.968;2022-08-19T10:09:52;23.70;85.40
15384;DHT22;7790;53.022;12.968;2022-08-19T10:13:53;23.70;85.80
15384;DHT22;7790;53.022;12.968;2022-08-19T10:17:54;23.70;85.20
15384;DHT22;7790;53.022;12.968;2022-08-19T10:21:55;23.70;85.50
15384;DHT22;7790;53.022;12.968;2022-08-19T10:25:59;23.60;85.80
15384;DHT22;7790;53.022;12.968;2022-08-19T10:30:00;23.60;85.80
15384;DHT22;7790;53.022;12.968;2022-08-19T10:34:01;23.60;85.90
15384;DHT22;7790;53.022;12.968;2022-08-19T10:38:02;23.50;86.30
15384;DHT22;7790;53.022;12.968;2022-08-19T10:42:05;23.50;87.30
15384;DHT22;7790;53.022;12.968;2022-08-19T10:46:08;23.50;87.30
15384;DHT22;7790;53.022;12.968;2022-08-19T10:50:10;23.40;87.70
15384;DHT22;7790;53.022;12.968;2022-08-19T10:54:29;23.40;88.40
15384;DHT22;7790;53.022;12.968;2022-08-19T10:58:48;23.40;88.50
15384;DHT22;7790;53.022;12.968;2022-08-19T11:02:49;23.50;89.40
15384;DHT22;7790;53.022;12.968;2022-08-19T11:06:50;23.50;89.70
15384;DHT22;7790;53.022;12.968;2022-08-19T11:10:52;23.50;89.70
15384;DHT22;7790;53.022;12.968;2022-08-19T11:14:55;23.50;90.20
15384;DHT22;7790;53.022;12.968;2022-08-19T11:18:58;23.50;90.10
15384;DHT22;7790;53.022;12.968;2022-08-19T11:22:59;23.50;90.00
15384;DHT22;7790;53.022;12.968;2022-08-19T11:27:03;23.60;90.10
15384;DHT22;7790;53.022;12.968;2022-08-19T11:31:10;23.60;91.20
15384;DHT22;7790;53.022;12.968;2022-08-19T11:35:12;23.60;91.00
15384;DHT22;7790;53.022;12.968;2022-08-19T11:39:15;23.60;90.40
15384;DHT22;7790;53.022;12.968;2022-08-19T11:43:16;23.60;90.90
15384;DHT22;7790;53.022;12.968;2022-08-19T11:47:19;23.70;91.30
15384;DHT22;7790;53.022;12.968;2022-08-19T11:51:21;23.70;91.20
15384;DHT22;7790;53.022;12.968;2022-08-19T11:55:23;23.60;91.10
15384;DHT22;7790;53.022;12.968;2022-08-19T11:59:24;23.70;90.40
15384;DHT22;7790;53.022;12.968;2022-08-19T12:03:27;23.70;90.50
15384;DHT22;7790;53.022;12.968;2022-08-19T12:07:28;23.70;90.00
15384;DHT22;7790;53.022;12.968;2022-08-19T12:11:32;23.70;90.10
15384;DHT22;7790;53.022;12.968;2022-08-19T12:15:38;23.70;89.80
15384;DHT22;7790;53.022;12.968;2022-08-19T12:19:42;23.80;88.80
15384;DHT22;7790;53.022;12.968;2022-08-19T12:23:43;23.80;89.20
15384;DHT22;7790;53.022;12.968;2022-08-19T12:27:46;23.80;90.00
15384;DHT22;7790;53.022;12.968;2022-08-19T12:31:47;23.80;89.30
15384;DHT22;7790;53.022;12.968;2022-08-19T12:35:47;23.80;90.00
15384;DHT22;7790;53.022;12.968;2022-08-19T12:39:48;23.80;90.10
15384;DHT22;7790;53.022;12.968;2022-08-19T12:43:50;23.80;89.60
15384;DHT22;7790;53.022;12.968;2022-08-19T12:47:51;23.90;89.40
15384;DHT22;7790;53.022;12.968;2022-08-19T12:51:53;23.90;89.50
15384;DHT22;7790;53.022;12.968;2022-08-19T12:55:58;23.90;89.00
15384;DHT22;7790;53.022;12.968;2022-08-19T13:04:04;23.90;88.10
15384;DHT22;7790;53.022;12.968;2022-08-19T13:08:05;23.90;88.30
15384;DHT22;7790;53.022;12.968;2022-08-19T13:12:06;23.90;89.10
15384;DHT22;7790;53.022;12.968;2022-08-19T13:16:10;23.90;87.60
15384;DHT22;7790;53.022;12.968;2022-08-19T13:20:12;23.90;88.40
15384;DHT22;7790;53.022;12.968;2022-08-19T13:24:13;24.00;88.00
15384;DHT22;7790;53.022;12.968;2022-08-19T13:28:13;24.00;88.20
15384;DHT22;7790;53.022;12.968;2022-08-19T13:32:14;24.00;87.60
15384;DHT22;7790;53.022;12.968;2022-08-19T13:36:35;24.00;87.60
15384;DHT22;7790;53.022;12.968;2022-08-19T13:40:36;24.00;88.00
15384;DHT22;7790;53.022;12.968;2022-08-19T13:44:37;24.00;88.70
15384;DHT22;7790;53.022;12.968;2022-08-19T13:48:38;24.00;88.00
15384;DHT22;7790;53.022;12.968;2022-08-19T13:52:40;24.00;87.80
15384;DHT22;7790;53.022;12.968;2022-08-19T13:56:43;24.00;88.00
15384;DHT22;7790;53.022;12.968;2022-08-19T14:00:45;24.00;87.40
15384;DHT22;7790;53.022;12.968;2022-08-19T14:04:46;24.00;87.70
15384;DHT22;7790;53.022;12.968;2022-08-19T14:08:47;24.00;87.50
15384;DHT22;7790;53.022;12.968;2022-08-19T14:12:51;23.90;87.40
15384;DHT22;7790;53.022;12.968;2022-08-19T14:16:52;24.00;86.70
15384;DHT22;7790;53.022;12.968;2022-08-19T14:20:53;24.00;86.70
15384;DHT22;7790;53.022;12.968;2022-08-19T14:24:54;23.90;86.80
15384;DHT22;7790;53.022;12.968;2022-08-19T14:28:56;23.80;87.60
15384;DHT22;7790;53.022;12.968;2022-08-19T14:33:00;23.90;88.10
15384;DHT22;7790;53.022;12.968;2022-08-19T14:37:01;23.90;87.30
15384;DHT22;7790;53.022;12.968;2022-08-19T14:41:21;23.90;87.10
15384;DHT22;7790;53.022;12.968;2022-08-19T14:45:22;23.80;87.10
15384;DHT22;7790;53.022;12.968;2022-08-19T14:49:23;23.80;87.50
15384;DHT22;7790;53.022;12.968;2022-08-19T14:53:24;23.80;86.50
15384;DHT22;7790;53.022;12.968;2022-08-19T14:57:24;23.90;86.20
15384;DHT22;7790;53.022;12.968;2022-08-19T15:01:25;23.80;86.20
15384;DHT22;7790;53.022;12.968;2022-08-19T15:05:26;23.80;86.10
15384;DHT22;7790;53.022;12.968;2022-08-19T15:09:27;23.80;85.80
15384;DHT22;7790;53.022;12.968;2022-08-19T15:13:29;23.80;85.90
15384;DHT22;7790;53.022;12.968;2022-08-19T15:17:30;23.80;85.90
15384;DHT22;7790;53.022;12.968;2022-08-19T15:21:31;23.80;85.80
15384;DHT22;7790;53.022;12.968;2022-08-19T15:25:32;23.80;85.70
15384;DHT22;7790;53.022;12.968;2022-08-19T15:29:34;23.80;85.10
15384;DHT22;7790;53.022;12.968;2022-08-19T15:33:36;23.80;85.00
15384;DHT22;7790;53.022;12.968;2022-08-19T15:37:37;23.80;84.70
15384;DHT22;7790;53.022;12.968;2022-08-19T15:41:38;23.80;85.30
15384;DHT22;7790;53.022;12.968;2022-08-19T15:45:43;23.80;85.30
15384;DHT22;7790;53.022;12.968;2022-08-19T15:49:44;23.80;86.60
15384;DHT22;7790;53.022;12.968;2022-08-19T15:53:46;23.70;86.10
15384;DHT22;7790;53.022;12.968;2022-08-19T15:57:47;23.70;85.90
15384;DHT22;7790;53.022;12.968;2022-08-19T16:02:08;23.80;85.70
15384;DHT22;7790;53.022;12.968;2022-08-19T16:06:27;23.80;85.30
15384;DHT22;7790;53.022;12.968;2022-08-19T16:10:29;23.70;85.10
15384;DHT22;7790;53.022;12.968;2022-08-19T16:14:32;23.80;85.10
15384;DHT22;7790;53.022;12.968;2022-08-19T16:18:33;23.80;84.60
15384;DHT22;7790;53.022;12.968;2022-08-19T16:22:38;23.80;84.70
15384;DHT22;7790;53.022;12.968;2022-08-19T16:26:41;23.70;84.80
15384;DHT22;7790;53.022;12.968;2022-08-19T16:30:42;23.70;84.80
15384;DHT22;7790;53.022;12.968;2022-08-19T16:34:42;23.60;85.20
15384;DHT22;7790;53.022;12.968;2022-08-19T16:38:43;23.60;85.40
15384;DHT22;7790;53.022;12.968;2022-08-19T16:42:47;23.70;85.10
15384;DHT22;7790;53.022;12.968;2022-08-19T16:46:48;23.70;84.60
15384;DHT22;7790;53.022;12.968;2022-08-19T16:50:51;23.70;84.40
15384;DHT22;7790;53.022;12.968;2022-08-19T16:54:52;23.70;84.40
15384;DHT22;7790;53.022;12.968;2022-08-19T16:58:54;23.70;83.90
15384;DHT22;7790;53.022;12.968;2022-08-19T17:02:55;23.60;83.70
15384;DHT22;7790;53.022;12.968;2022-08-19T17:06:56;23.70;83.60
15384;DHT22;7790;53.022;12.968;2022-08-19T17:10:58;23.60;83.40
15384;DHT22;7790;53.022;12.968;2022-08-19T17:15:03;23.70;83.50
15384;DHT22;7790;53.022;12.968;2022-08-19T17:19:06;23.60;83.40
15384;DHT22;7790;53.022;12.968;2022-08-19T17:23:08;23.60;83.30
15384;DHT22;7790;53.022;12.968;2022-08-19T17:27:09;23.60;83.40
15384;DHT22;7790;53.022;12.968;2022-08-19T17:31:11;23.60;83.50
15384;DHT22;7790;53.022;12.968;2022-08-19T17:35:13;23.60;83.40
15384;DHT22;7790;53.022;12.968;2022-08-19T17:39:20;23.60;83.50
15384;DHT22;7790;53.022;12.968;2022-08-19T17:43:22;23.60;83.50
15384;DHT22;7790;53.022;12.968;2022-08-19T17:47:23;23.60;83.50
15384;DHT22;7790;53.022;12.968;2022-08-19T17:51:38;23.60;83.40
15384;DHT22;7790;53.022;12.968;2022-08-19T17:55:39;23.60;83.30
15384;DHT22;7790;53.022;12.968;2022-08-19T17:59:40;23.60;83.60
15384;DHT22;7790;53.022;12.968;2022-08-19T18:03:41;23.60;83.40
15384;DHT22;7790;53.022;12.968;2022-08-19T18:07:43;23.60;83.50
15384;DHT22;7790;53.022;12.968;2022-08-19T18:11:43;23.50;84.00
15384;DHT22;7790;53.022;12.968;2022-08-19T18:15:44;23.50;84.10
15384;DHT22;7790;53.022;12.968;2022-08-19T18:19:46;23.50;84.00
15384;DHT22;7790;53.022;12.968;2022-08-19T18:23:48;23.50;84.20
15384;DHT22;7790;53.022;12.968;2022-08-19T18:27:53;23.50;84.60
15384;DHT22;7790;53.022;12.968;2022-08-19T18:31:54;23.50;85.10
15384;DHT22;7790;53.022;12.968;2022-08-19T18:35:57;23.50;84.80
15384;DHT22;7790;53.022;12.968;2022-08-19T18:39:58;23.50;84.40
15384;DHT22;7790;53.022;12.968;2022-08-19T18:44:17;23.50;84.50
15384;DHT22;7790;53.022;12.968;2022-08-19T18:48:37;23.40;84.50
15384;DHT22;7790;53.022;12.968;2022-08-19T18:52:57;23.50;84.50
15384;DHT22;7790;53.022;12.968;2022-08-19T18:56:58;23.50;84.40
15384;DHT22;7790;53.022;12.968;2022-08-19T19:01:02;23.40;84.20
15384;DHT22;7790;53.022;12.968;2022-08-19T19:05:12;23.50;85.10
15384;DHT22;7790;53.022;12.968;2022-08-19T19:09:16;23.50;84.40
15384;DHT22;7790;53.022;12.968;2022-08-19T19:13:17;23.50;83.70
15384;DHT22;7790;53.022;12.968;2022-08-19T19:17:18;23.50;83.30
15384;DHT22;7790;53.022;12.968;2022-08-19T19:21:26;23.50;83.30
15384;DHT22;7790;53.022;12.968;2022-08-19T19:25:27;23.50;83.00
15384;DHT22;7790;53.022;12.968;2022-08-19T19:29:28;23.50;83.30
15384;DHT22;7790;53.022;12.968;2022-08-19T19:33:29;23.50;82.80
15384;DHT22;7790;53.022;12.968;2022-08-19T19:37:30;23.50;82.80
15384;DHT22;7790;53.022;12.968;2022-08-19T19:41:31;23.40;83.00
15384;DHT22;7790;53.022;12.968;2022-08-19T19:45:32;23.40;83.20
15384;DHT22;7790;53.022;12.968;2022-08-19T19:49:34;23.40;82.90
15384;DHT22;7790;53.022;12.968;2022-08-19T19:53:35;23.40;82.70
15384;DHT22;7790;53.022;12.968;2022-08-19T19:57:35;23.40;83.00
15384;DHT22;7790;53.022;12.968;2022-08-19T20:01:39;23.40;83.30
15384;DHT22;7790;53.022;12.968;2022-08-19T20:05:46;23.40;83.10
15384;DHT22;7790;53.022;12.968;2022-08-19T20:09:47;23.40;82.90
15384;DHT22;7790;53.022;12.968;2022-08-19T20:13:48;23.40;83.10
15384;DHT22;7790;53.022;12.968;2022-08-19T20:17:50;23.40;83.10
15384;DHT22;7790;53.022;12.968;2022-08-19T20:21:51;23.40;83.00
15384;DHT22;7790;53.022;12.968;2022-08-19T20:25:53;23.40;83.30
15384;DHT22;7790;53.022;12.968;2022-08-19T20:29:54;23.40;83.50
15384;DHT22;7790;53.022;12.968;2022-08-19T20:33:55;23.40;83.60
15384;DHT22;7790;53.022;12.968;2022-08-19T20:37:56;23.40;83.40
15384;DHT22;7790;53.022;12.968;2022-08-19T20:41:57;23.40;83.20
15384;DHT22;7790;53.022;12.968;2022-08-19T20:46:00;23.40;82.90
15384;DHT22;7790;53.022;12.968;2022-08-19T20:50:04;23.40;83.20
15384;DHT22;7790;53.022;12.968;2022-08-19T20:54:06;23.40;83.10
15384;DHT22;7790;53.022;12.968;2022-08-19T20:58:07;23.40;82.90
15384;DHT22;7790;53.022;12.968;2022-08-19T21:02:09;23.30;82.90
15384;DHT22;7790;53.022;12.968;2022-08-19T21:06:14;23.30;82.90
15384;DHT22;7790;53.022;12.968;2022-08-19T21:10:15;23.20;82.80
15384;DHT22;7790;53.022;12.968;2022-08-19T21:14:17;23.20;83.20
15384;DHT22;7790;53.022;12.968;2022-08-19T21:18:21;23.20;82.90
15384;DHT22;7790;53.022;12.968;2022-08-19T21:22:22;23.20;82.70
15384;DHT22;7790;53.022;12.968;2022-08-19T21:26:23;23.20;83.20
15384;DHT22;7790;53.022;12.968;2022-08-19T21:30:24;23.20;83.90
15384;DHT22;7790;53.022;12.968;2022-08-19T21:34:25;23.20;83.90
15384;DHT22;7790;53.022;12.968;2022-08-19T21:38:26;23.20;83.10
15384;DHT22;7790;53.022;12.968;2022-08-19T21:42:27;23.20;83.00
15384;DHT22;7790;53.022;12.968;2022-08-19T21:46:28;23.20;83.30
15384;DHT22;7790;53.022;12.968;2022-08-19T21:50:29;23.20;83.60
15384;DHT22;7790;53.022;12.968;2022-08-19T21:54:32;23.20;83.50
15384;DHT22;7790;53.022;12.968;2022-08-19T21:58:33;23.10;83.40
15384;DHT22;7790;53.022;12.968;2022-08-19T22:02:36;23.10;83.90
15384;DHT22;7790;53.022;12.968;2022-08-19T22:06:37;23.00;84.40
15384;DHT22;7790;53.022;12.968;2022-08-19T22:10:38;23.10;83.70
15384;DHT22;7790;53.022;12.968;2022-08-19T22:14:39;23.10;83.50
15384;DHT22;7790;53.022;12.968;2022-08-19T22:18:40;23.10;83.20
15384;DHT22;7790;53.022;12.968;2022-08-19T22:22:48;23.10;82.80
15384;DHT22;7790;53.022;12.968;2022-08-19T22:26:49;23.10;82.90
15384;DHT22;7790;53.022;12.968;2022-08-19T22:30:50;23.10;82.50
15384;DHT22;7790;53.022;12.968;2022-08-19T22:34:51;23.20;82.00
15384;DHT22;7790;53.022;12.968;2022-08-19T22:38:52;23.20;82.10
15384;DHT22;7790;53.022;12.968;2022-08-19T22:43:00;23.20;81.80
15384;DHT22;7790;53.022;12.968;2022-08-19T22:47:01;23.10;81.90
15384;DHT22;7790;53.022;12.968;2022-08-19T22:51:02;23.20;81.50
15384;DHT22;7790;53.022;12.968;2022-08-19T22:55:23;23.20;81.50
15384;DHT22;7790;53.022;12.968;2022-08-19T22:59:23;23.20;81.20
15384;DHT22;7790;53.022;12.968;2022-08-19T23:03:25;23.20;81.40
15384;DHT22;7790;53.022;12.968;2022-08-19T23:07:25;23.20;81.40
15384;DHT22;7790;53.022;12.968;2022-08-19T23:11:26;23.20;81.20
15384;DHT22;7790;53.022;12.968;2022-08-19T23:15:30;23.20;81.30
15384;DHT22;7790;53.022;12.968;2022-08-19T23:19:32;23.20;80.90
15384;DHT22;7790;53.022;12.968;2022-08-19T23:23:33;23.20;80.90
15384;DHT22;7790;53.022;12.968;2022-08-19T23:27:34;23.20;80.80
15384;DHT22;7790;53.022;12.968;2022-08-19T23:31:53;23.30;80.70
15384;DHT22;7790;53.022;12.968;2022-08-19T23:36:07;23.20;80.50
15384;DHT22;7790;53.022;12.968;2022-08-19T23:40:09;23.20;80.40
15384;DHT22;7790;53.022;12.968;2022-08-19T23:44:10;23.30;80.40
15384;DHT22;7790;53.022;12.968;2022-08-19T23:48:12;23.30;80.30
15384;DHT22;7790;53.022;12.968;2022-08-19T23:52:13;23.30;80.40
15384;DHT22;7790;53.022;12.968;2022-08-19T23:56:14;23.20;80.40
